Rauschs, Pennsylvania
Current Conditions -  °F | °C
As of 8:55 AM on Wednesday 26 Nov 2014 (Local Time) from KHZL Reporting Station
Moderate Snow Moderate Snow  
Wind Chill: 26°   Ceiling: 400
Heat Index: 32°   Visibility: 0.5mi
Dew Point: 32°   Wind: 6mph
Humidity: 100%   Direction: 350°N
Pressure: 30.1"   Gusts: NA
Location:  40.7138°N, 75.9395°W
Report Text: KHZL 261355Z AUTO 35005KT 1/2SM SN OVC004 00/00 A3010 RMK AO2
Loading
Personal Weather Stations






























Interactive Weather Map New forecast layout! Learn more

10-Day Weather Forecast

Advertisements
Track Severe Weather on mobile